Time;durP1;ratioP1;P1;durP2;ratioP2;P2;SDS_P1;SDS_P2;PMS_P1;PMS_P2;Temp;Humidity;BMP_temperature;BMP_pressure;BME280_temperature;BME280_humidity;BME280_pressure;Samples;Min_cycle;Max_cycle;Signal;HPM_P1;HPM_P2
2023/06/17 00:00:27;;;;;;;1.30;1.30;;;17.80;99.90;;;;;;5055854;28;20211;-64
2023/06/17 00:02:54;;;;;;;1.27;1.27;;;17.80;99.90;;;;;;5054720;28;20688;-65
2023/06/17 00:05:24;;;;;;;1.10;1.10;;;17.70;99.90;;;;;;5054042;28;20847;-64
2023/06/17 00:07:51;;;;;;;1.38;1.38;;;17.70;99.90;;;;;;5054338;28;20724;-64
2023/06/17 00:10:19;;;;;;;1.23;1.20;;;17.70;99.90;;;;;;5054888;28;20238;-65
2023/06/17 00:12:48;;;;;;;1.40;1.30;;;17.70;99.90;;;;;;5058135;28;20231;-66
2023/06/17 00:15:16;;;;;;;1.30;1.30;;;17.70;99.90;;;;;;5056034;28;20240;-66
2023/06/17 00:17:46;;;;;;;1.50;1.40;;;17.70;99.90;;;;;;5055824;28;20211;-65
2023/06/17 00:20:14;;;;;;;1.20;1.20;;;17.60;99.90;;;;;;5055797;28;20242;-66
2023/06/17 00:22:43;;;;;;;1.40;1.40;;;17.50;99.90;;;;;;5056446;28;20204;-65
2023/06/17 00:25:11;;;;;;;1.23;1.23;;;17.40;99.90;;;;;;5056523;28;20228;-66
2023/06/17 00:27:40;;;;;;;1.40;1.40;;;17.30;99.90;;;;;;5056116;28;20200;-66
2023/06/17 00:30:08;;;;;;;1.67;1.58;;;17.30;99.90;;;;;;5053470;28;20298;-65
2023/06/17 00:32:35;;;;;;;1.50;1.40;;;17.20;99.90;;;;;;5053666;28;20223;-65
2023/06/17 00:35:04;;;;;;;1.30;1.30;;;17.20;99.90;;;;;;5054748;28;20230;-66
2023/06/17 00:37:32;;;;;;;1.40;1.40;;;17.10;99.90;;;;;;5054371;28;20944;-66
2023/06/17 00:39:59;;;;;;;1.15;1.15;;;17.10;99.90;;;;;;5053488;28;20204;-65
2023/06/17 00:42:25;;;;;;;1.48;1.42;;;17.20;99.90;;;;;;5053240;28;20210;-65
2023/06/17 00:44:54;;;;;;;1.40;1.40;;;17.10;99.90;;;;;;5052887;28;20255;-65
2023/06/17 00:47:21;;;;;;;1.67;1.30;;;17.00;99.90;;;;;;5052935;28;20207;-64
2023/06/17 00:49:48;;;;;;;1.45;1.35;;;17.00;99.90;;;;;;5052285;28;20212;-65
2023/06/17 00:52:15;;;;;;;1.20;1.20;;;16.90;99.90;;;;;;5052592;28;20224;-64
2023/06/17 00:54:43;;;;;;;1.85;1.75;;;16.80;99.90;;;;;;5083632;22;20405;-64
2023/06/17 00:57:13;;;;;;;1.20;1.20;;;16.80;99.90;;;;;;5070998;28;20209;-64
2023/06/17 00:59:42;;;;;;;2.38;1.30;;;16.80;99.90;;;;;;5071968;28;20298;-64
2023/06/17 01:02:13;;;;;;;1.05;1.05;;;16.80;99.90;;;;;;5072219;28;20282;-64
2023/06/17 01:04:42;;;;;;;1.40;1.30;;;16.70;99.90;;;;;;5072233;28;20242;-63
2023/06/17 01:07:23;;;;;;;1.42;1.33;;;16.70;99.90;;;;;;5072042;28;20204;-64
2023/06/17 01:09:55;;;;;;;1.27;1.27;;;16.70;99.90;;;;;;5071729;28;20203;-64
2023/06/17 01:12:25;;;;;;;1.40;1.30;;;16.50;99.90;;;;;;5073326;28;20297;-63
2023/06/17 01:14:55;;;;;;;1.40;1.30;;;16.60;99.90;;;;;;5072993;28;20223;-63
2023/06/17 01:17:24;;;;;;;1.40;1.40;;;16.40;99.90;;;;;;5072961;28;20249;-63
2023/06/17 01:19:51;;;;;;;1.30;1.30;;;16.40;99.90;;;;;;5071808;28;20215;-64
2023/06/17 01:22:19;;;;;;;1.20;1.20;;;16.40;99.90;;;;;;5072006;28;20297;-64
2023/06/17 01:24:49;;;;;;;1.38;1.38;;;16.30;99.90;;;;;;5071850;28;20245;-65
2023/06/17 01:27:17;;;;;;;1.30;1.30;;;16.30;99.90;;;;;;5072148;28;20210;-63
2023/06/17 01:29:47;;;;;;;1.40;1.40;;;16.20;99.90;;;;;;5072202;28;20302;-65
2023/06/17 01:32:14;;;;;;;1.55;1.45;;;16.30;99.90;;;;;;5076759;28;20221;-63
2023/06/17 01:34:47;;;;;;;1.30;1.30;;;16.30;99.90;;;;;;5081235;28;20219;-63
2023/06/17 01:37:21;;;;;;;1.60;1.50;;;16.20;99.90;;;;;;5080057;28;20242;-63
2023/06/17 01:39:52;;;;;;;1.80;1.70;;;16.10;99.90;;;;;;5080827;28;20203;-64
2023/06/17 01:42:25;;;;;;;1.20;1.20;;;16.00;99.90;;;;;;5071679;28;20207;-65
2023/06/17 01:44:55;;;;;;;1.27;1.23;;;16.00;99.90;;;;;;5072713;28;20219;-64
2023/06/17 01:47:22;;;;;;;1.35;1.35;;;16.00;99.90;;;;;;5072961;28;20311;-63
2023/06/17 01:49:49;;;;;;;1.65;1.55;;;15.90;99.90;;;;;;5072813;28;20241;-65
2023/06/17 01:52:16;;;;;;;1.10;1.10;;;15.90;99.90;;;;;;5071701;28;20209;-64
2023/06/17 01:54:43;;;;;;;1.40;1.30;;;15.90;99.90;;;;;;5071369;28;20237;-64
2023/06/17 01:57:11;;;;;;;1.10;1.10;;;15.90;99.90;;;;;;5071478;28;20293;-63
2023/06/17 01:59:38;;;;;;;1.50;1.40;;;16.00;99.90;;;;;;5073579;28;20572;-65
2023/06/17 02:02:05;;;;;;;1.17;1.17;;;15.90;99.90;;;;;;5083072;28;20203;-63
2023/06/17 02:04:32;;;;;;;1.50;1.40;;;15.90;99.90;;;;;;5071729;28;20223;-64
2023/06/17 02:06:59;;;;;;;1.52;1.42;;;15.90;99.90;;;;;;5071531;28;20229;-64
2023/06/17 02:09:26;;;;;;;1.15;1.15;;;16.00;99.90;;;;;;5073343;28;20210;-64
2023/06/17 02:11:52;;;;;;;1.48;1.38;;;16.00;99.90;;;;;;5071063;28;20203;-64
2023/06/17 02:14:21;;;;;;;1.42;1.33;;;16.00;99.90;;;;;;5068583;28;20601;-65
2023/06/17 02:16:48;;;;;;;1.60;1.50;;;16.00;99.90;;;;;;5071200;28;20313;-64
2023/06/17 02:19:15;;;;;;;1.55;1.45;;;16.00;99.90;;;;;;5070773;28;20297;-64
2023/06/17 02:21:43;;;;;;;1.20;1.20;;;16.00;99.90;;;;;;5071442;28;20214;-64
2023/06/17 02:24:10;;;;;;;1.27;1.27;;;16.00;99.90;;;;;;5072010;28;20280;-64
2023/06/17 02:26:37;;;;;;;1.27;1.27;;;16.00;99.90;;;;;;5072061;28;20253;-65
2023/06/17 02:29:04;;;;;;;1.48;1.40;;;15.90;99.90;;;;;;5071053;28;20850;-64
2023/06/17 02:31:33;;;;;;;1.48;1.40;;;15.80;99.90;;;;;;5071753;28;20207;-65
2023/06/17 02:34:00;;;;;;;1.50;1.40;;;15.80;99.90;;;;;;5071664;28;20273;-65
2023/06/17 02:36:27;;;;;;;1.50;1.50;;;15.80;99.90;;;;;;5070925;28;20205;-64
2023/06/17 02:38:54;;;;;;;1.15;1.15;;;15.70;99.90;;;;;;5070877;28;20209;-63
2023/06/17 02:41:21;;;;;;;1.08;1.08;;;15.70;99.90;;;;;;5070419;28;20234;-63
2023/06/17 02:43:48;;;;;;;1.38;1.30;;;15.80;99.90;;;;;;5070892;28;20239;-64
2023/06/17 02:46:15;;;;;;;1.33;1.23;;;15.70;99.90;;;;;;5071587;28;20203;-64
2023/06/17 02:48:44;;;;;;;1.40;1.40;;;15.70;99.90;;;;;;5071268;28;20673;-65
2023/06/17 02:51:11;;;;;;;1.40;1.40;;;15.70;99.90;;;;;;5072042;28;20199;-65
2023/06/17 02:53:37;;;;;;;1.30;1.30;;;15.70;99.90;;;;;;5071505;28;20222;-63
2023/06/17 02:56:04;;;;;;;1.42;1.33;;;15.70;99.90;;;;;;5071043;28;20297;-64
2023/06/17 02:58:31;;;;;;;1.60;1.50;;;15.70;99.90;;;;;;5074474;28;20298;-64
2023/06/17 03:00:59;;;;;;;1.25;1.25;;;15.70;99.90;;;;;;5075703;28;20207;-65
2023/06/17 03:03:33;;;;;;;2.05;1.50;;;15.70;99.90;;;;;;5074465;28;20203;-63
2023/06/17 03:06:04;;;;;;;1.30;1.30;;;15.70;99.90;;;;;;5071607;28;20219;-63
2023/06/17 03:08:33;;;;;;;1.33;1.33;;;15.70;99.90;;;;;;5071305;28;20302;-63
2023/06/17 03:11:00;;;;;;;1.40;1.40;;;15.60;99.90;;;;;;5072362;28;20208;-63
2023/06/17 03:13:27;;;;;;;1.20;1.20;;;15.50;99.90;;;;;;5072777;28;20231;-65
2023/06/17 03:15:54;;;;;;;1.60;1.50;;;15.40;99.90;;;;;;5074576;28;20227;-64
2023/06/17 03:18:21;;;;;;;1.30;1.30;;;15.40;99.90;;;;;;5074494;28;20203;-63
2023/06/17 03:20:51;;;;;;;1.20;1.20;;;15.40;99.90;;;;;;5074128;28;20681;-63
2023/06/17 03:23:20;;;;;;;1.40;1.40;;;15.40;99.90;;;;;;5074325;28;20239;-62
2023/06/17 03:25:49;;;;;;;1.40;1.30;;;15.40;99.90;;;;;;5074422;28;20242;-65
2023/06/17 03:28:16;;;;;;;1.30;1.30;;;15.30;99.90;;;;;;5074284;28;20200;-64
2023/06/17 03:30:43;;;;;;;1.33;1.33;;;15.40;99.90;;;;;;5073867;28;20306;-64
2023/06/17 03:33:10;;;;;;;1.63;1.52;;;15.30;99.90;;;;;;5075070;28;20229;-64
2023/06/17 03:35:37;;;;;;;2.53;1.55;;;15.20;99.90;;;;;;5075286;28;20601;-65
2023/06/17 03:38:04;;;;;;;1.50;1.45;;;15.20;99.90;;;;;;5074203;28;20205;-63
2023/06/17 03:40:32;;;;;;;1.30;1.30;;;15.20;99.90;;;;;;5073730;28;20207;-64
2023/06/17 03:42:59;;;;;;;1.33;1.27;;;15.20;99.90;;;;;;5073467;28;20196;-63
2023/06/17 03:45:27;;;;;;;1.55;1.50;;;15.30;99.90;;;;;;5073382;28;20314;-64
2023/06/17 03:47:55;;;;;;;1.45;1.38;;;15.30;99.90;;;;;;5073499;28;20257;-63
2023/06/17 03:50:22;;;;;;;1.40;1.40;;;15.30;99.90;;;;;;5073693;28;20207;-63
2023/06/17 03:52:49;;;;;;;1.42;1.40;;;15.30;99.90;;;;;;5073261;28;20312;-64
2023/06/17 03:55:16;;;;;;;1.50;1.40;;;15.30;99.90;;;;;;5073542;28;20325;-63
2023/06/17 03:57:44;;;;;;;2.08;1.98;;;15.30;99.90;;;;;;5073409;28;20210;-64
2023/06/17 04:00:13;;;;;;;1.40;1.40;;;15.30;99.90;;;;;;5075533;28;20677;-63
2023/06/17 04:02:41;;;;;;;1.23;1.23;;;15.30;99.90;;;;;;5080566;28;20203;-63
2023/06/17 04:05:09;;;;;;;1.40;1.40;;;15.30;99.90;;;;;;5078597;28;20231;-65
2023/06/17 04:07:38;;;;;;;1.42;1.33;;;15.20;99.90;;;;;;5084469;28;20241;-62
2023/06/17 04:10:07;;;;;;;1.52;1.42;;;15.20;99.90;;;;;;5077453;28;20344;-64
2023/06/17 04:12:34;;;;;;;1.30;1.30;;;15.20;99.90;;;;;;5073189;28;20203;-63
2023/06/17 04:15:02;;;;;;;1.55;1.40;;;15.30;99.90;;;;;;5073008;28;20235;-63
2023/06/17 04:17:29;;;;;;;1.38;1.38;;;15.30;99.90;;;;;;5073262;28;20261;-64
2023/06/17 04:19:58;;;;;;;1.38;1.30;;;15.30;99.90;;;;;;5073431;28;20209;-62
2023/06/17 04:22:25;;;;;;;1.40;1.40;;;15.40;99.90;;;;;;5072594;28;20203;-64
2023/06/17 04:24:55;;;;;;;1.27;1.27;;;15.40;99.90;;;;;;5072337;28;20223;-64
2023/06/17 04:27:22;;;;;;;1.38;1.27;;;15.50;99.90;;;;;;5073174;28;20208;-63
2023/06/17 04:29:49;;;;;;;1.60;1.50;;;15.60;99.90;;;;;;5076327;28;20971;-63
2023/06/17 04:32:18;;;;;;;1.30;1.30;;;15.70;99.90;;;;;;5075843;28;20290;-63
2023/06/17 04:34:47;;;;;;;1.63;1.50;;;15.80;99.90;;;;;;5075148;28;20725;-63
2023/06/17 04:37:15;;;;;;;1.20;1.20;;;15.80;99.90;;;;;;5074906;28;20651;-64
2023/06/17 04:39:42;;;;;;;1.60;1.50;;;15.90;99.90;;;;;;5074319;28;20214;-64
2023/06/17 04:42:09;;;;;;;1.48;1.48;;;15.90;99.90;;;;;;5074237;28;20234;-64
2023/06/17 04:44:37;;;;;;;1.33;1.33;;;16.00;99.90;;;;;;5075289;28;20229;-64
2023/06/17 04:47:04;;;;;;;1.25;1.25;;;16.00;99.90;;;;;;5074958;28;20261;-64
2023/06/17 04:49:38;;;;;;;1.30;1.30;;;16.10;99.90;;;;;;5075179;28;20229;-63
2023/06/17 04:52:06;;;;;;;1.58;1.48;;;16.10;99.90;;;;;;5074843;28;20218;-64
2023/06/17 04:54:34;;;;;;;1.58;1.38;;;16.20;99.90;;;;;;5074396;28;20227;-65
2023/06/17 04:57:01;;;;;;;1.90;1.70;;;16.30;99.90;;;;;;5074790;28;20234;-63
2023/06/17 04:59:27;;;;;;;1.58;1.50;;;16.40;99.90;;;;;;5073262;28;20207;-64
2023/06/17 05:01:55;;;;;;;1.45;1.45;;;16.30;99.90;;;;;;5071833;28;20210;-63
2023/06/17 05:04:21;;;;;;;1.40;1.40;;;16.30;99.90;;;;;;5071903;28;20292;-63
2023/06/17 05:06:50;;;;;;;2.28;1.48;;;16.40;99.90;;;;;;5072040;28;20207;-63
2023/06/17 05:09:16;;;;;;;1.33;1.33;;;16.60;99.90;;;;;;5071573;28;20211;-63
2023/06/17 05:11:43;;;;;;;1.63;1.40;;;16.70;99.90;;;;;;5071934;28;20203;-64
2023/06/17 05:14:10;;;;;;;1.45;1.45;;;16.80;99.90;;;;;;5071537;28;20730;-64
2023/06/17 05:16:37;;;;;;;1.40;1.40;;;17.00;99.90;;;;;;5071894;28;20203;-65
2023/06/17 05:19:04;;;;;;;1.63;1.60;;;17.00;99.90;;;;;;5071385;28;20740;-64
2023/06/17 05:21:31;;;;;;;1.40;1.40;;;17.20;99.90;;;;;;5071737;28;20322;-64
2023/06/17 05:23:59;;;;;;;1.45;1.35;;;17.40;99.90;;;;;;5071551;28;20690;-64
2023/06/17 05:26:27;;;;;;;1.55;1.45;;;17.50;99.90;;;;;;5071779;28;20199;-63
2023/06/17 05:28:53;;;;;;;1.40;1.40;;;17.60;99.90;;;;;;5071657;28;20306;-64
2023/06/17 05:31:20;;;;;;;1.70;1.60;;;17.60;99.90;;;;;;5071206;28;20578;-64
2023/06/17 05:33:47;;;;;;;1.48;1.48;;;17.80;99.90;;;;;;5071446;28;20223;-65
2023/06/17 05:36:15;;;;;;;1.60;1.50;;;17.90;99.90;;;;;;5072119;28;20207;-64
2023/06/17 05:38:42;;;;;;;1.48;1.40;;;18.10;99.90;;;;;;5071486;28;20203;-62
2023/06/17 05:41:10;;;;;;;1.67;1.58;;;18.30;99.90;;;;;;5071068;28;20294;-63
2023/06/17 05:43:36;;;;;;;1.45;1.45;;;18.40;99.90;;;;;;5071362;28;20204;-64
2023/06/17 05:46:03;;;;;;;1.70;1.60;;;18.60;99.90;;;;;;5075128;28;20203;-63
2023/06/17 05:48:30;;;;;;;1.40;1.30;;;18.80;99.90;;;;;;5072270;28;20202;-65
2023/06/17 05:50:57;;;;;;;1.70;1.60;;;19.00;99.90;;;;;;5074452;28;20309;-65
2023/06/17 05:53:24;;;;;;;1.30;1.30;;;19.20;99.90;;;;;;5071314;28;20203;-65
2023/06/17 05:55:50;;;;;;;1.65;1.60;;;19.30;99.90;;;;;;5071180;28;20237;-64
2023/06/17 05:58:19;;;;;;;1.30;1.25;;;19.50;99.90;;;;;;5071723;28;20203;-64
2023/06/17 06:00:46;;;;;;;1.50;1.40;;;19.70;99.90;;;;;;5071553;28;20210;-63
2023/06/17 06:03:13;;;;;;;1.45;1.45;;;19.80;99.90;;;;;;5071480;28;20576;-63
2023/06/17 06:05:39;;;;;;;1.63;1.52;;;19.90;99.90;;;;;;5071559;28;20222;-64
2023/06/17 06:08:06;;;;;;;1.40;1.40;;;20.00;99.90;;;;;;5080794;28;20310;-63
2023/06/17 06:10:33;;;;;;;2.17;1.52;;;20.10;99.90;;;;;;5076281;28;20259;-64
2023/06/17 06:13:00;;;;;;;1.40;1.40;;;20.20;99.90;;;;;;5071021;28;20213;-64
2023/06/17 06:15:28;;;;;;;1.90;1.60;;;20.40;99.90;;;;;;5073339;28;20231;-65
2023/06/17 06:17:55;;;;;;;1.70;1.60;;;20.60;99.90;;;;;;5082385;28;20274;-64
2023/06/17 06:20:22;;;;;;;1.30;1.30;;;20.60;99.90;;;;;;5081336;28;20208;-64
2023/06/17 06:22:49;;;;;;;1.45;1.35;;;20.80;99.90;;;;;;5077387;28;20275;-64
2023/06/17 06:25:16;;;;;;;1.60;1.50;;;20.90;99.90;;;;;;5076472;28;20310;-64
2023/06/17 06:27:42;;;;;;;1.40;1.40;;;21.00;99.90;;;;;;5071309;28;20209;-64
2023/06/17 06:30:10;;;;;;;1.50;1.50;;;21.20;99.90;;;;;;5071153;28;20207;-64
2023/06/17 06:32:38;;;;;;;1.58;1.48;;;21.30;99.90;;;;;;5070861;28;20207;-65
2023/06/17 06:35:06;;;;;;;1.55;1.45;;;21.50;99.90;;;;;;5070805;28;20229;-64
2023/06/17 06:37:33;;;;;;;1.55;1.45;;;21.60;99.90;;;;;;5070409;28;20672;-64
2023/06/17 06:40:00;;;;;;;1.60;1.50;;;21.70;99.90;;;;;;5070564;28;20233;-64
2023/06/17 06:42:27;;;;;;;2.00;1.50;;;21.80;99.90;;;;;;5070564;28;20214;-63
2023/06/17 06:44:54;;;;;;;1.48;1.40;;;22.00;99.90;;;;;;5070892;28;20306;-64
2023/06/17 06:47:21;;;;;;;1.50;1.40;;;22.20;99.90;;;;;;5070701;28;20203;-65
2023/06/17 06:49:49;;;;;;;1.48;1.38;;;22.10;99.90;;;;;;5074403;28;20235;-64
2023/06/17 06:52:16;;;;;;;1.75;1.65;;;22.10;99.90;;;;;;5074337;28;20666;-63
2023/06/17 06:54:43;;;;;;;1.63;1.50;;;22.20;99.90;;;;;;5075117;28;20227;-63
2023/06/17 06:57:10;;;;;;;1.75;1.65;;;22.40;99.90;;;;;;5074644;28;20214;-62
2023/06/17 06:59:37;;;;;;;1.30;1.30;;;22.50;99.90;;;;;;5074762;28;20200;-63
2023/06/17 07:02:04;;;;;;;1.35;1.33;;;22.60;99.90;;;;;;5074600;28;20628;-66
2023/06/17 07:04:31;;;;;;;1.52;1.30;;;22.70;99.90;;;;;;5074968;28;20219;-64
2023/06/17 07:06:59;;;;;;;1.52;1.50;;;22.80;99.90;;;;;;5077710;28;20257;-65
2023/06/17 07:09:26;;;;;;;1.38;1.38;;;22.80;99.90;;;;;;5080140;28;20203;-64
2023/06/17 07:11:53;;;;;;;1.77;1.67;;;22.80;99.90;;;;;;5082006;28;20342;-65
2023/06/17 07:14:20;;;;;;;1.60;1.50;;;23.00;99.90;;;;;;5079132;28;20302;-65
2023/06/17 07:16:46;;;;;;;1.75;1.65;;;22.90;99.90;;;;;;5074276;28;20223;-63
2023/06/17 07:19:13;;;;;;;1.60;1.50;;;22.90;99.90;;;;;;5073993;28;20215;-63
2023/06/17 07:21:40;;;;;;;1.65;1.55;;;22.90;99.90;;;;;;5074061;28;20568;-64
2023/06/17 07:24:08;;;;;;;1.60;1.48;;;23.00;99.90;;;;;;5073946;28;20242;-64
2023/06/17 07:26:35;;;;;;;1.33;1.33;;;23.00;99.90;;;;;;5073799;28;20658;-64
2023/06/17 07:29:02;;;;;;;1.40;1.30;;;23.20;99.90;;;;;;5073399;28;20196;-64
2023/06/17 07:31:30;;;;;;;1.50;1.40;;;23.10;99.90;;;;;;5073454;28;20203;-64
2023/06/17 07:33:57;;;;;;;1.48;1.40;;;23.30;99.90;;;;;;5072923;28;20247;-64
2023/06/17 07:36:24;;;;;;;1.35;1.35;;;23.50;99.90;;;;;;5073433;28;20207;-64
2023/06/17 07:38:51;;;;;;;1.50;1.40;;;23.50;99.90;;;;;;5073374;28;20276;-62
2023/06/17 07:41:20;;;;;;;2.60;1.52;;;23.70;99.90;;;;;;5072872;28;20191;-65
2023/06/17 07:43:47;;;;;;;1.40;1.40;;;23.90;99.90;;;;;;5073115;28;20203;-64
2023/06/17 07:46:14;;;;;;;1.65;1.55;;;23.90;99.90;;;;;;5071561;28;21603;-63
2023/06/17 07:48:41;;;;;;;1.65;1.55;;;24.00;99.90;;;;;;5073165;28;20206;-66
2023/06/17 07:51:07;;;;;;;1.60;1.50;;;24.10;99.90;;;;;;5072485;28;20199;-64
2023/06/17 07:53:34;;;;;;;1.80;1.70;;;24.20;99.90;;;;;;5072805;28;20212;-64
2023/06/17 07:56:01;;;;;;;1.70;1.60;;;24.30;99.90;;;;;;5072772;28;20316;-65
2023/06/17 07:58:30;;;;;;;1.67;1.58;;;24.40;99.90;;;;;;5073113;28;20260;-63
2023/06/17 08:00:56;;;;;;;1.83;1.52;;;24.60;99.90;;;;;;5072062;28;20211;-65
2023/06/17 08:03:23;;;;;;;1.70;1.55;;;24.70;99.90;;;;;;5072842;28;20203;-65
2023/06/17 08:05:50;;;;;;;1.70;1.60;;;24.80;99.90;;;;;;5072822;28;20306;-64
2023/06/17 08:08:17;;;;;;;1.80;1.70;;;24.90;99.90;;;;;;5074407;28;20231;-64
2023/06/17 08:10:44;;;;;;;1.60;1.50;;;25.00;99.90;;;;;;5074790;28;20266;-66
2023/06/17 08:13:11;;;;;;;1.80;1.70;;;24.80;99.90;;;;;;5085805;28;20203;-64
2023/06/17 08:15:39;;;;;;;1.75;1.65;;;24.80;99.90;;;;;;5073101;28;20231;-64
2023/06/17 08:18:06;;;;;;;1.90;1.80;;;24.80;99.90;;;;;;5072988;28;20265;-62
2023/06/17 08:20:33;;;;;;;1.50;1.40;;;24.90;99.90;;;;;;5072460;28;20207;-66
2023/06/17 08:23:00;;;;;;;1.60;1.60;;;25.00;99.90;;;;;;5072547;28;20204;-66
2023/06/17 08:25:27;;;;;;;1.70;1.58;;;25.10;99.90;;;;;;5073027;28;20372;-65
2023/06/17 08:27:54;;;;;;;1.90;1.67;;;25.20;99.90;;;;;;5075156;28;20252;-64
2023/06/17 08:30:21;;;;;;;1.60;1.50;;;25.20;99.90;;;;;;5074375;28;20264;-64
2023/06/17 08:32:49;;;;;;;2.47;2.00;;;25.20;99.90;;;;;;5073034;28;20218;-64
2023/06/17 08:35:16;;;;;;;1.88;1.77;;;25.20;99.90;;;;;;5073582;28;20239;-65
2023/06/17 08:37:43;;;;;;;1.80;1.70;;;25.40;99.90;;;;;;5073898;28;20211;-64
2023/06/17 08:40:11;;;;;;;1.42;1.42;;;25.50;99.90;;;;;;5072562;28;20226;-64
2023/06/17 08:42:39;;;;;;;1.70;1.60;;;25.60;99.90;;;;;;5073450;28;20225;-66
2023/06/17 08:45:08;;;;;;;1.60;1.50;;;25.70;99.90;;;;;;5074480;28;20700;-64
2023/06/17 08:47:36;;;;;;;1.98;1.60;;;25.80;99.90;;;;;;5072427;28;20673;-64
2023/06/17 08:50:06;;;;;;;1.50;1.40;;;25.90;99.90;;;;;;5073239;28;20230;-65
2023/06/17 08:52:36;;;;;;;1.70;1.60;;;26.00;99.90;;;;;;5073741;28;20207;-64
2023/06/17 08:55:03;;;;;;;1.45;1.45;;;26.20;99.90;;;;;;5073241;28;20241;-64
2023/06/17 08:57:31;;;;;;;1.90;1.80;;;26.30;99.90;;;;;;5074441;28;20207;-64
2023/06/17 08:59:58;;;;;;;1.60;1.50;;;26.10;99.90;;;;;;5072982;28;20199;-64
2023/06/17 09:02:25;;;;;;;1.73;1.63;;;26.20;99.90;;;;;;5073040;28;20203;-64
2023/06/17 09:04:52;;;;;;;1.95;1.70;;;26.10;99.90;;;;;;5074476;28;20223;-65
2023/06/17 09:07:22;;;;;;;1.60;1.50;;;26.30;99.90;;;;;;5079917;28;20199;-65
2023/06/17 09:09:54;;;;;;;1.63;1.52;;;26.70;99.90;;;;;;5081812;28;20203;-66
2023/06/17 09:12:23;;;;;;;1.50;1.40;;;26.70;99.90;;;;;;5078673;28;20214;-64
2023/06/17 09:14:50;;;;;;;1.70;1.60;;;26.70;99.90;;;;;;5073040;28;20231;-63
2023/06/17 09:17:29;;;;;;;1.65;1.55;;;26.80;99.90;;;;;;5072157;28;20192;-65
2023/06/17 09:19:56;;;;;;;1.90;1.80;;;26.90;99.90;;;;;;5067285;28;20847;-65
2023/06/17 09:22:26;;;;;;;1.63;1.52;;;26.80;99.90;;;;;;5071020;28;20211;-65
2023/06/17 09:24:58;;;;;;;1.42;1.40;;;26.80;99.90;;;;;;5071376;28;20276;-65
2023/06/17 09:27:26;;;;;;;1.95;1.63;;;27.10;99.90;;;;;;5069636;28;20199;-66
2023/06/17 09:30:09;;;;;;;1.70;1.60;;;27.30;99.90;;;;;;5070388;28;20639;-64
2023/06/17 09:32:39;;;;;;;1.80;1.70;;;27.40;99.90;;;;;;5071657;28;20211;-65
2023/06/17 09:35:08;;;;;;;1.63;1.52;;;27.50;99.50;;;;;;5071773;28;20220;-65
2023/06/17 09:37:37;;;;;;;1.40;1.40;;;27.40;99.10;;;;;;5071908;28;20267;-66
2023/06/17 09:40:05;;;;;;;1.70;1.60;;;27.40;98.60;;;;;;5071967;28;20217;-67
2023/06/17 09:42:32;;;;;;;1.70;1.60;;;27.60;99.20;;;;;;5070561;28;20211;-64
2023/06/17 09:45:03;;;;;;;1.58;1.30;;;27.70;98.50;;;;;;5064636;28;20306;-65
2023/06/17 09:47:33;;;;;;;1.70;1.60;;;27.70;97.80;;;;;;5066840;28;20213;-65
2023/06/17 09:50:03;;;;;;;1.70;1.60;;;27.80;98.50;;;;;;5069925;28;20210;-66
2023/06/17 09:52:32;;;;;;;2.05;1.75;;;27.90;98.30;;;;;;5071275;28;20214;-64
2023/06/17 09:55:02;;;;;;;1.45;1.35;;;28.00;98.30;;;;;;5071194;28;20227;-66
2023/06/17 09:57:31;;;;;;;1.55;1.45;;;28.10;97.40;;;;;;5071343;28;20226;-63
2023/06/17 09:59:59;;;;;;;2.63;1.52;;;28.30;96.90;;;;;;5070792;28;20203;-64
2023/06/17 10:02:26;;;;;;;1.40;1.40;;;28.30;97.20;;;;;;5070896;28;20203;-63
2023/06/17 10:04:53;;;;;;;1.70;1.60;;;28.50;97.20;;;;;;5070002;28;20223;-63
2023/06/17 10:07:24;;;;;;;4.82;4.53;;;28.70;96.70;;;;;;5068904;28;20204;-64
2023/06/17 10:09:52;;;;;;;1.92;1.83;;;28.70;95.90;;;;;;5071411;28;20555;-64
2023/06/17 10:12:22;;;;;;;1.80;1.70;;;28.60;95.10;;;;;;5071773;28;20202;-64
2023/06/17 10:14:49;;;;;;;2.00;1.90;;;28.70;94.60;;;;;;5074148;28;20227;-64
2023/06/17 10:17:20;;;;;;;1.35;1.25;;;28.60;92.30;;;;;;5080913;28;20377;-65
2023/06/17 10:19:48;;;;;;;2.08;1.98;;;28.40;91.80;;;;;;5071408;28;20207;-64
2023/06/17 10:22:19;;;;;;;2.05;1.40;;;28.40;91.20;;;;;;5071188;28;20514;-64
2023/06/17 10:24:47;;;;;;;1.65;1.40;;;28.40;90.20;;;;;;5071733;28;20286;-64
2023/06/17 10:27:14;;;;;;;0.95;0.95;;;28.60;90.10;;;;;;5070901;28;20278;-64
2023/06/17 10:29:43;;;;;;;1.20;1.20;;;28.70;84.50;;;;;;5070045;28;20207;-64
2023/06/17 10:32:19;;;;;;;1.20;1.20;;;28.90;86.50;;;;;;5070867;28;20665;-64
2023/06/17 10:35:13;;;;;;;1.38;1.17;;;29.10;86.40;;;;;;5070000;28;20234;-65
2023/06/17 10:37:45;;;;;;;1.20;1.20;;;29.00;80.90;;;;;;5072289;28;20207;-64
2023/06/17 10:40:25;;;;;;;1.85;1.55;;;29.00;82.40;;;;;;5059738;28;20285;-63
2023/06/17 10:43:16;;;;;;;1.65;1.20;;;29.00;82.40;;;;;;5076106;28;20218;-64
2023/06/17 10:45:51;;;;;;;1.40;1.30;;;29.10;81.90;;;;;;5073422;28;20227;-63
2023/06/17 10:48:22;;;;;;;1.00;1.00;;;29.10;78.30;;;;;;5074748;28;20355;-64
2023/06/17 10:50:56;;;;;;;1.35;1.20;;;29.20;80.80;;;;;;5078343;28;20208;-64
2023/06/17 10:53:28;;;;;;;1.20;1.20;;;29.30;80.10;;;;;;5074113;28;20218;-64
2023/06/17 10:55:57;;;;;;;1.60;1.50;;;29.50;81.50;;;;;;5071754;28;20227;-63
2023/06/17 10:58:29;;;;;;;1.30;1.30;;;29.70;80.90;;;;;;5067770;28;20227;-64
2023/06/17 11:01:05;;;;;;;1.33;1.23;;;29.70;80.90;;;;;;5065865;28;20672;-63
2023/06/17 11:03:32;;;;;;;1.20;1.20;;;29.50;75.60;;;;;;5063885;28;20642;-63
2023/06/17 11:06:01;;;;;;;1.35;1.35;;;29.60;76.20;;;;;;5069935;28;20711;-62
2023/06/17 11:08:29;;;;;;;1.65;1.52;;;29.70;76.60;;;;;;5068558;28;20204;-61
2023/06/17 11:11:07;;;;;;;1.60;1.50;;;29.70;74.50;;;;;;5069102;28;20207;-62
2023/06/17 11:13:34;;;;;;;1.33;1.33;;;29.70;75.50;;;;;;5068190;28;20641;-61
2023/06/17 11:16:01;;;;;;;1.27;1.20;;;29.70;76.00;;;;;;5068246;28;20251;-62
2023/06/17 11:18:29;;;;;;;3.22;3.08;;;29.40;74.40;;;;;;5069671;28;20199;-63
2023/06/17 11:20:56;;;;;;;2.58;2.47;;;29.50;75.90;;;;;;5069844;28;20214;-61
2023/06/17 11:23:22;;;;;;;1.67;1.58;;;29.50;76.20;;;;;;5069849;28;20195;-63
2023/06/17 11:25:52;;;;;;;1.70;1.60;;;29.50;75.60;;;;;;5074910;28;20330;-64
2023/06/17 11:28:21;;;;;;;1.98;1.88;;;29.40;75.00;;;;;;5075481;28;20210;-64
2023/06/17 11:30:48;;;;;;;1.42;1.33;;;29.60;77.80;;;;;;5071753;28;20195;-64
2023/06/17 11:33:15;;;;;;;1.33;1.23;;;29.90;76.50;;;;;;5070885;28;20200;-63
2023/06/17 11:35:45;;;;;;;1.20;1.20;;;30.00;75.30;;;;;;5074156;28;20219;-63
2023/06/17 11:38:12;;;;;;;1.38;1.27;;;30.30;75.80;;;;;;5073792;28;20196;-62
2023/06/17 11:40:42;;;;;;;1.15;1.15;;;30.40;74.40;;;;;;5071554;28;20211;-64
2023/06/17 11:43:09;;;;;;;1.33;1.23;;;30.40;74.00;;;;;;5073373;28;20710;-64
2023/06/17 11:45:36;;;;;;;1.27;1.20;;;30.40;73.50;;;;;;5073641;28;20230;-64
2023/06/17 11:48:05;;;;;;;1.27;1.27;;;30.50;74.50;;;;;;5072770;28;20282;-64
2023/06/17 11:50:32;;;;;;;1.13;1.13;;;30.30;72.80;;;;;;5071828;28;20208;-62
2023/06/17 11:53:02;;;;;;;1.63;1.40;;;30.20;71.60;;;;;;5076201;28;20203;-63
2023/06/17 11:55:33;;;;;;;1.20;1.20;;;30.00;72.60;;;;;;5069724;28;20231;-62
2023/06/17 11:58:02;;;;;;;1.27;1.27;;;30.00;74.60;;;;;;5073639;28;20200;-63
2023/06/17 12:00:29;;;;;;;1.35;1.25;;;30.00;73.70;;;;;;5073194;28;20234;-64
2023/06/17 12:02:56;;;;;;;1.48;1.40;;;29.80;74.30;;;;;;5073702;28;20211;-62
2023/06/17 12:05:27;;;;;;;1.45;1.42;;;30.00;75.20;;;;;;5073124;28;20708;-64
2023/06/17 12:07:58;;;;;;;1.65;1.35;;;30.10;74.90;;;;;;5073227;28;20208;-64
2023/06/17 12:10:26;;;;;;;1.58;1.38;;;30.10;75.40;;;;;;5073273;28;20215;-64
2023/06/17 12:12:55;;;;;;;1.20;1.20;;;30.20;76.10;;;;;;5071467;28;20203;-64
2023/06/17 12:15:28;;;;;;;1.60;1.50;;;30.30;76.70;;;;;;5085736;28;20296;-63
2023/06/17 12:17:56;;;;;;;1.20;1.20;;;30.40;75.10;;;;;;5067982;28;20211;-63
2023/06/17 12:20:23;;;;;;;2.53;1.77;;;30.40;75.10;;;;;;5068474;28;20203;-64
2023/06/17 12:22:52;;;;;;;1.15;1.15;;;30.30;74.30;;;;;;5071624;28;20196;-64
2023/06/17 12:25:19;;;;;;;1.88;1.30;;;30.30;75.20;;;;;;5070450;28;20230;-63
2023/06/17 12:27:50;;;;;;;1.25;1.20;;;30.30;74.90;;;;;;5066137;28;20211;-64
2023/06/17 12:30:17;;;;;;;1.40;1.40;;;30.30;74.30;;;;;;5071524;28;20260;-65
2023/06/17 12:32:44;;;;;;;1.60;1.50;;;30.00;73.00;;;;;;5072231;28;20241;-64
2023/06/17 12:35:11;;;;;;;1.30;1.30;;;29.80;73.80;;;;;;5072151;28;20241;-65
2023/06/17 12:37:41;;;;;;;1.30;1.30;;;29.80;73.40;;;;;;5071062;28;20238;-65
2023/06/17 12:40:09;;;;;;;1.20;1.20;;;29.80;74.00;;;;;;5073365;28;20214;-64
2023/06/17 12:42:36;;;;;;;1.52;1.42;;;30.00;74.60;;;;;;5075139;28;20265;-63
2023/06/17 12:45:06;;;;;;;1.15;1.15;;;30.30;76.20;;;;;;5070643;28;20246;-66
2023/06/17 12:47:33;;;;;;;1.40;1.40;;;30.30;75.40;;;;;;5069697;28;20254;-64
2023/06/17 12:50:00;;;;;;;1.63;1.52;;;30.40;75.70;;;;;;5072786;28;20203;-63
2023/06/17 12:52:27;;;;;;;1.30;1.30;;;30.30;74.00;;;;;;5071366;28;20196;-63